sensor_id;sensor_type;location;lat;lon;timestamp;P1;durP1;ratioP1;P2;durP2;ratioP2
9912;SDS011;41380;52.548;13.344;2022-08-01T00:01:13;5.55;;;4.30;;
9912;SDS011;41380;52.548;13.344;2022-08-01T00:03:40;4.80;;;4.40;;
9912;SDS011;41380;52.548;13.344;2022-08-01T00:06:07;4.70;;;4.30;;
9912;SDS011;41380;52.548;13.344;2022-08-01T00:08:34;6.43;;;4.50;;
9912;SDS011;41380;52.548;13.344;2022-08-01T00:11:00;6.20;;;4.22;;
9912;SDS011;41380;52.548;13.344;2022-08-01T00:13:27;4.60;;;4.07;;
9912;SDS011;41380;52.548;13.344;2022-08-01T00:15:54;4.82;;;4.43;;
9912;SDS011;41380;52.548;13.344;2022-08-01T00:18:22;5.88;;;4.63;;
9912;SDS011;41380;52.548;13.344;2022-08-01T00:20:49;6.10;;;4.20;;
9912;SDS011;41380;52.548;13.344;2022-08-01T00:23:16;4.93;;;4.43;;
9912;SDS011;41380;52.548;13.344;2022-08-01T00:25:43;4.63;;;4.32;;
9912;SDS011;41380;52.548;13.344;2022-08-01T00:28:10;4.90;;;4.40;;
9912;SDS011;41380;52.548;13.344;2022-08-01T00:30:38;4.60;;;4.20;;
9912;SDS011;41380;52.548;13.344;2022-08-01T00:33:05;4.90;;;4.50;;
9912;SDS011;41380;52.548;13.344;2022-08-01T00:35:33;5.22;;;4.72;;
9912;SDS011;41380;52.548;13.344;2022-08-01T00:38:00;5.63;;;5.13;;
9912;SDS011;41380;52.548;13.344;2022-08-01T00:40:27;5.18;;;4.68;;
9912;SDS011;41380;52.548;13.344;2022-08-01T00:42:54;5.50;;;5.00;;
9912;SDS011;41380;52.548;13.344;2022-08-01T00:45:21;4.88;;;4.47;;
9912;SDS011;41380;52.548;13.344;2022-08-01T00:47:48;7.22;;;4.97;;
9912;SDS011;41380;52.548;13.344;2022-08-01T00:50:15;5.30;;;4.90;;
9912;SDS011;41380;52.548;13.344;2022-08-01T00:52:43;6.28;;;5.03;;
9912;SDS011;41380;52.548;13.344;2022-08-01T00:55:10;5.38;;;4.93;;
9912;SDS011;41380;52.548;13.344;2022-08-01T00:57:39;5.90;;;5.40;;
9912;SDS011;41380;52.548;13.344;2022-08-01T01:00:06;6.10;;;5.30;;
9912;SDS011;41380;52.548;13.344;2022-08-01T01:02:34;5.82;;;5.20;;
9912;SDS011;41380;52.548;13.344;2022-08-01T01:05:01;5.85;;;5.35;;
9912;SDS011;41380;52.548;13.344;2022-08-01T01:07:30;5.57;;;5.10;;
9912;SDS011;41380;52.548;13.344;2022-08-01T01:10:03;5.57;;;5.00;;
9912;SDS011;41380;52.548;13.344;2022-08-01T01:12:37;5.43;;;4.93;;
9912;SDS011;41380;52.548;13.344;2022-08-01T01:15:11;5.80;;;5.30;;
9912;SDS011;41380;52.548;13.344;2022-08-01T01:17:45;5.72;;;5.07;;
9912;SDS011;41380;52.548;13.344;2022-08-01T01:20:18;5.15;;;4.75;;
9912;SDS011;41380;52.548;13.344;2022-08-01T01:22:53;4.93;;;4.53;;
9912;SDS011;41380;52.548;13.344;2022-08-01T01:25:40;5.10;;;4.70;;
9912;SDS011;41380;52.548;13.344;2022-08-01T01:28:23;5.45;;;4.93;;
9912;SDS011;41380;52.548;13.344;2022-08-01T01:31:01;5.35;;;4.85;;
9912;SDS011;41380;52.548;13.344;2022-08-01T01:33:33;5.63;;;5.13;;
9912;SDS011;41380;52.548;13.344;2022-08-01T01:36:03;4.90;;;4.50;;
9912;SDS011;41380;52.548;13.344;2022-08-01T01:38:32;5.00;;;4.55;;
9912;SDS011;41380;52.548;13.344;2022-08-01T01:41:02;5.78;;;5.28;;
9912;SDS011;41380;52.548;13.344;2022-08-01T01:43:31;4.97;;;4.47;;
9912;SDS011;41380;52.548;13.344;2022-08-01T01:46:00;5.63;;;5.13;;
9912;SDS011;41380;52.548;13.344;2022-08-01T01:48:29;5.60;;;4.85;;
9912;SDS011;41380;52.548;13.344;2022-08-01T01:50:58;5.47;;;5.07;;
9912;SDS011;41380;52.548;13.344;2022-08-01T01:53:27;5.18;;;4.78;;
9912;SDS011;41380;52.548;13.344;2022-08-01T01:55:55;5.47;;;4.93;;
9912;SDS011;41380;52.548;13.344;2022-08-01T01:58:24;5.35;;;4.88;;
9912;SDS011;41380;52.548;13.344;2022-08-01T02:00:56;6.65;;;5.07;;
9912;SDS011;41380;52.548;13.344;2022-08-01T02:03:28;5.22;;;4.82;;
9912;SDS011;41380;52.548;13.344;2022-08-01T02:05:56;6.15;;;5.63;;
9912;SDS011;41380;52.548;13.344;2022-08-01T02:08:24;5.10;;;4.70;;
9912;SDS011;41380;52.548;13.344;2022-08-01T02:10:51;5.65;;;5.25;;
9912;SDS011;41380;52.548;13.344;2022-08-01T02:13:38;5.20;;;4.80;;
9912;SDS011;41380;52.548;13.344;2022-08-01T02:16:06;6.00;;;5.50;;
9912;SDS011;41380;52.548;13.344;2022-08-01T02:18:37;5.47;;;5.07;;
9912;SDS011;41380;52.548;13.344;2022-08-01T02:21:05;5.90;;;5.40;;
9912;SDS011;41380;52.548;13.344;2022-08-01T02:23:37;5.60;;;5.15;;
9912;SDS011;41380;52.548;13.344;2022-08-01T02:26:07;5.88;;;5.47;;
9912;SDS011;41380;52.548;13.344;2022-08-01T02:28:40;5.50;;;5.03;;
9912;SDS011;41380;52.548;13.344;2022-08-01T02:31:12;5.90;;;5.40;;
9912;SDS011;41380;52.548;13.344;2022-08-01T02:33:44;5.20;;;4.80;;
9912;SDS011;41380;52.548;13.344;2022-08-01T02:36:16;6.00;;;5.50;;
9912;SDS011;41380;52.548;13.344;2022-08-01T02:38:45;5.40;;;5.00;;
9912;SDS011;41380;52.548;13.344;2022-08-01T02:41:13;5.85;;;5.35;;
9912;SDS011;41380;52.548;13.344;2022-08-01T02:43:47;5.40;;;4.90;;
9912;SDS011;41380;52.548;13.344;2022-08-01T02:46:17;6.57;;;5.97;;
9912;SDS011;41380;52.548;13.344;2022-08-01T02:48:50;6.10;;;5.60;;
9912;SDS011;41380;52.548;13.344;2022-08-01T02:51:19;6.10;;;5.68;;
9912;SDS011;41380;52.548;13.344;2022-08-01T02:53:49;7.38;;;6.68;;
9912;SDS011;41380;52.548;13.344;2022-08-01T02:56:17;6.10;;;5.60;;
9912;SDS011;41380;52.548;13.344;2022-08-01T02:58:46;6.30;;;5.78;;
9912;SDS011;41380;52.548;13.344;2022-08-01T03:01:13;10.05;;;9.15;;
9912;SDS011;41380;52.548;13.344;2022-08-01T03:03:42;7.05;;;6.35;;
9912;SDS011;41380;52.548;13.344;2022-08-01T03:06:11;6.95;;;6.35;;
9912;SDS011;41380;52.548;13.344;2022-08-01T03:08:40;6.55;;;5.95;;
9912;SDS011;41380;52.548;13.344;2022-08-01T03:11:08;6.55;;;6.05;;
9912;SDS011;41380;52.548;13.344;2022-08-01T03:13:38;7.07;;;6.47;;
9912;SDS011;41380;52.548;13.344;2022-08-01T03:16:08;7.80;;;7.07;;
9912;SDS011;41380;52.548;13.344;2022-08-01T03:18:37;6.20;;;5.68;;
9912;SDS011;41380;52.548;13.344;2022-08-01T03:21:05;7.80;;;6.47;;
9912;SDS011;41380;52.548;13.344;2022-08-01T03:23:36;7.03;;;6.30;;
9912;SDS011;41380;52.548;13.344;2022-08-01T03:26:06;6.88;;;6.20;;
9912;SDS011;41380;52.548;13.344;2022-08-01T03:28:34;7.20;;;6.50;;
9912;SDS011;41380;52.548;13.344;2022-08-01T03:31:03;6.68;;;6.13;;
9912;SDS011;41380;52.548;13.344;2022-08-01T03:33:30;7.45;;;6.47;;
9912;SDS011;41380;52.548;13.344;2022-08-01T03:35:57;7.15;;;6.45;;
9912;SDS011;41380;52.548;13.344;2022-08-01T03:38:27;6.85;;;6.35;;
9912;SDS011;41380;52.548;13.344;2022-08-01T03:41:02;6.97;;;6.38;;
9912;SDS011;41380;52.548;13.344;2022-08-01T03:43:36;6.80;;;6.13;;
9912;SDS011;41380;52.548;13.344;2022-08-01T03:46:07;5.95;;;5.45;;
9912;SDS011;41380;52.548;13.344;2022-08-01T03:48:47;6.28;;;5.78;;
9912;SDS011;41380;52.548;13.344;2022-08-01T03:51:16;5.90;;;5.40;;
9912;SDS011;41380;52.548;13.344;2022-08-01T03:53:45;5.88;;;5.38;;
9912;SDS011;41380;52.548;13.344;2022-08-01T03:56:16;6.00;;;5.40;;
9912;SDS011;41380;52.548;13.344;2022-08-01T03:58:45;6.05;;;5.45;;
9912;SDS011;41380;52.548;13.344;2022-08-01T04:01:13;5.93;;;5.32;;
9912;SDS011;41380;52.548;13.344;2022-08-01T04:03:41;6.10;;;5.60;;
9912;SDS011;41380;52.548;13.344;2022-08-01T04:06:08;7.15;;;6.45;;
9912;SDS011;41380;52.548;13.344;2022-08-01T04:08:36;6.55;;;5.68;;
9912;SDS011;41380;52.548;13.344;2022-08-01T04:11:03;7.20;;;6.22;;
9912;SDS011;41380;52.548;13.344;2022-08-01T04:13:32;7.63;;;6.85;;
9912;SDS011;41380;52.548;13.344;2022-08-01T04:15:59;8.73;;;7.68;;
9912;SDS011;41380;52.548;13.344;2022-08-01T04:18:26;7.90;;;7.10;;
9912;SDS011;41380;52.548;13.344;2022-08-01T04:20:53;8.85;;;7.07;;
9912;SDS011;41380;52.548;13.344;2022-08-01T04:23:22;8.55;;;7.75;;
9912;SDS011;41380;52.548;13.344;2022-08-01T04:25:52;7.90;;;7.10;;
9912;SDS011;41380;52.548;13.344;2022-08-01T04:28:20;7.95;;;7.15;;
9912;SDS011;41380;52.548;13.344;2022-08-01T04:30:50;7.75;;;6.95;;
9912;SDS011;41380;52.548;13.344;2022-08-01T04:33:20;9.95;;;8.27;;
9912;SDS011;41380;52.548;13.344;2022-08-01T04:35:47;8.65;;;7.70;;
9912;SDS011;41380;52.548;13.344;2022-08-01T04:38:17;8.27;;;7.47;;
9912;SDS011;41380;52.548;13.344;2022-08-01T04:40:47;8.63;;;7.55;;
9912;SDS011;41380;52.548;13.344;2022-08-01T04:43:16;10.32;;;9.13;;
9912;SDS011;41380;52.548;13.344;2022-08-01T04:45:44;9.90;;;8.38;;
9912;SDS011;41380;52.548;13.344;2022-08-01T04:48:15;9.98;;;8.77;;
9912;SDS011;41380;52.548;13.344;2022-08-01T04:50:44;9.85;;;8.85;;
9912;SDS011;41380;52.548;13.344;2022-08-01T04:53:13;10.65;;;8.57;;
9912;SDS011;41380;52.548;13.344;2022-08-01T04:55:41;10.60;;;9.55;;
9912;SDS011;41380;52.548;13.344;2022-08-01T04:58:08;9.27;;;8.27;;
9912;SDS011;41380;52.548;13.344;2022-08-01T05:00:36;10.68;;;9.45;;
9912;SDS011;41380;52.548;13.344;2022-08-01T05:03:03;10.43;;;9.32;;
9912;SDS011;41380;52.548;13.344;2022-08-01T05:05:31;10.45;;;9.55;;
9912;SDS011;41380;52.548;13.344;2022-08-01T05:07:58;11.40;;;10.23;;
9912;SDS011;41380;52.548;13.344;2022-08-01T05:10:26;11.60;;;10.40;;
9912;SDS011;41380;52.548;13.344;2022-08-01T05:12:53;11.15;;;10.15;;
9912;SDS011;41380;52.548;13.344;2022-08-01T05:15:20;11.05;;;9.95;;
9912;SDS011;41380;52.548;13.344;2022-08-01T05:17:47;10.35;;;9.27;;
9912;SDS011;41380;52.548;13.344;2022-08-01T05:20:14;10.52;;;9.52;;
9912;SDS011;41380;52.548;13.344;2022-08-01T05:22:42;10.40;;;9.40;;
9912;SDS011;41380;52.548;13.344;2022-08-01T05:25:09;9.80;;;8.82;;
9912;SDS011;41380;52.548;13.344;2022-08-01T05:27:37;9.60;;;8.70;;
9912;SDS011;41380;52.548;13.344;2022-08-01T05:30:06;9.95;;;9.05;;
9912;SDS011;41380;52.548;13.344;2022-08-01T05:32:34;8.98;;;7.80;;
9912;SDS011;41380;52.548;13.344;2022-08-01T05:35:01;10.50;;;8.63;;
9912;SDS011;41380;52.548;13.344;2022-08-01T05:37:29;9.90;;;8.50;;
9912;SDS011;41380;52.548;13.344;2022-08-01T05:39:57;9.52;;;8.63;;
9912;SDS011;41380;52.548;13.344;2022-08-01T05:42:24;9.25;;;8.32;;
9912;SDS011;41380;52.548;13.344;2022-08-01T05:44:51;8.85;;;8.05;;
9912;SDS011;41380;52.548;13.344;2022-08-01T05:47:18;8.82;;;8.13;;
9912;SDS011;41380;52.548;13.344;2022-08-01T05:49:45;8.73;;;7.25;;
9912;SDS011;41380;52.548;13.344;2022-08-01T05:52:12;8.50;;;7.70;;
9912;SDS011;41380;52.548;13.344;2022-08-01T05:54:39;7.93;;;7.13;;
9912;SDS011;41380;52.548;13.344;2022-08-01T05:57:08;7.55;;;6.85;;
9912;SDS011;41380;52.548;13.344;2022-08-01T05:59:35;7.93;;;7.15;;
9912;SDS011;41380;52.548;13.344;2022-08-01T06:02:01;7.45;;;6.47;;
9912;SDS011;41380;52.548;13.344;2022-08-01T06:04:28;7.75;;;6.97;;
9912;SDS011;41380;52.548;13.344;2022-08-01T06:06:55;6.82;;;6.13;;
9912;SDS011;41380;52.548;13.344;2022-08-01T06:09:22;7.03;;;6.43;;
9912;SDS011;41380;52.548;13.344;2022-08-01T06:11:49;7.03;;;6.40;;
9912;SDS011;41380;52.548;13.344;2022-08-01T06:14:17;7.40;;;6.70;;
9912;SDS011;41380;52.548;13.344;2022-08-01T06:16:45;6.72;;;6.13;;
9912;SDS011;41380;52.548;13.344;2022-08-01T06:19:12;6.50;;;5.80;;
9912;SDS011;41380;52.548;13.344;2022-08-01T06:21:39;6.13;;;5.63;;
9912;SDS011;41380;52.548;13.344;2022-08-01T06:24:06;5.97;;;5.47;;
9912;SDS011;41380;52.548;13.344;2022-08-01T06:26:34;5.70;;;4.90;;
9912;SDS011;41380;52.548;13.344;2022-08-01T06:29:02;4.82;;;4.43;;
9912;SDS011;41380;52.548;13.344;2022-08-01T06:31:30;4.43;;;4.00;;
9912;SDS011;41380;52.548;13.344;2022-08-01T06:33:57;5.05;;;4.47;;
9912;SDS011;41380;52.548;13.344;2022-08-01T06:36:24;4.32;;;4.03;;
9912;SDS011;41380;52.548;13.344;2022-08-01T06:38:51;3.85;;;3.55;;
9912;SDS011;41380;52.548;13.344;2022-08-01T06:41:18;4.45;;;4.05;;
9912;SDS011;41380;52.548;13.344;2022-08-01T06:43:45;3.67;;;3.38;;
9912;SDS011;41380;52.548;13.344;2022-08-01T06:46:12;3.67;;;3.33;;
9912;SDS011;41380;52.548;13.344;2022-08-01T06:48:40;4.35;;;3.95;;
9912;SDS011;41380;52.548;13.344;2022-08-01T06:51:07;3.50;;;3.20;;
9912;SDS011;41380;52.548;13.344;2022-08-01T06:53:35;3.90;;;3.60;;
9912;SDS011;41380;52.548;13.344;2022-08-01T06:56:03;4.50;;;3.88;;
9912;SDS011;41380;52.548;13.344;2022-08-01T06:58:31;5.22;;;3.88;;
9912;SDS011;41380;52.548;13.344;2022-08-01T07:00:59;5.07;;;3.60;;
9912;SDS011;41380;52.548;13.344;2022-08-01T07:03:26;3.70;;;3.40;;
9912;SDS011;41380;52.548;13.344;2022-08-01T07:05:54;4.47;;;4.07;;
9912;SDS011;41380;52.548;13.344;2022-08-01T07:08:21;4.25;;;3.50;;
9912;SDS011;41380;52.548;13.344;2022-08-01T07:10:48;3.97;;;3.55;;
9912;SDS011;41380;52.548;13.344;2022-08-01T07:13:15;4.68;;;3.33;;
9912;SDS011;41380;52.548;13.344;2022-08-01T07:15:46;3.63;;;3.33;;
9912;SDS011;41380;52.548;13.344;2022-08-01T07:18:12;4.18;;;3.78;;
9912;SDS011;41380;52.548;13.344;2022-08-01T07:20:39;4.20;;;3.80;;
9912;SDS011;41380;52.548;13.344;2022-08-01T07:23:08;4.63;;;4.22;;
9912;SDS011;41380;52.548;13.344;2022-08-01T07:25:34;4.63;;;4.22;;
9912;SDS011;41380;52.548;13.344;2022-08-01T07:28:01;5.75;;;4.30;;
9912;SDS011;41380;52.548;13.344;2022-08-01T07:30:28;4.40;;;4.10;;
9912;SDS011;41380;52.548;13.344;2022-08-01T07:32:56;4.57;;;4.18;;
9912;SDS011;41380;52.548;13.344;2022-08-01T07:35:23;4.38;;;3.92;;
9912;SDS011;41380;52.548;13.344;2022-08-01T07:37:49;4.00;;;3.65;;
9912;SDS011;41380;52.548;13.344;2022-08-01T07:40:19;4.10;;;3.70;;
9912;SDS011;41380;52.548;13.344;2022-08-01T07:42:46;3.60;;;3.40;;
9912;SDS011;41380;52.548;13.344;2022-08-01T07:45:13;3.55;;;3.22;;
9912;SDS011;41380;52.548;13.344;2022-08-01T07:47:41;4.38;;;3.47;;
9912;SDS011;41380;52.548;13.344;2022-08-01T07:50:08;4.10;;;3.80;;
9912;SDS011;41380;52.548;13.344;2022-08-01T07:52:35;4.05;;;3.55;;
9912;SDS011;41380;52.548;13.344;2022-08-01T07:55:02;6.20;;;4.35;;
9912;SDS011;41380;52.548;13.344;2022-08-01T07:57:31;4.55;;;4.15;;
9912;SDS011;41380;52.548;13.344;2022-08-01T07:59:58;5.20;;;4.30;;
9912;SDS011;41380;52.548;13.344;2022-08-01T08:02:25;4.97;;;4.53;;
9912;SDS011;41380;52.548;13.344;2022-08-01T08:04:52;4.85;;;4.35;;
9912;SDS011;41380;52.548;13.344;2022-08-01T08:07:19;6.07;;;5.45;;
9912;SDS011;41380;52.548;13.344;2022-08-01T08:09:46;4.47;;;4.18;;
9912;SDS011;41380;52.548;13.344;2022-08-01T08:12:12;6.45;;;5.85;;
9912;SDS011;41380;52.548;13.344;2022-08-01T08:14:41;4.70;;;4.30;;
9912;SDS011;41380;52.548;13.344;2022-08-01T08:17:08;5.53;;;4.70;;
9912;SDS011;41380;52.548;13.344;2022-08-01T08:19:35;4.20;;;3.90;;
9912;SDS011;41380;52.548;13.344;2022-08-01T08:22:05;5.45;;;4.35;;
9912;SDS011;41380;52.548;13.344;2022-08-01T08:24:32;4.35;;;3.97;;
9912;SDS011;41380;52.548;13.344;2022-08-01T08:26:59;3.97;;;3.63;;
9912;SDS011;41380;52.548;13.344;2022-08-01T08:29:27;4.07;;;3.78;;
9912;SDS011;41380;52.548;13.344;2022-08-01T08:31:59;3.58;;;3.30;;
9912;SDS011;41380;52.548;13.344;2022-08-01T08:34:27;3.72;;;3.30;;
9912;SDS011;41380;52.548;13.344;2022-08-01T08:36:55;3.55;;;3.28;;
9912;SDS011;41380;52.548;13.344;2022-08-01T08:39:23;2.78;;;2.58;;
9912;SDS011;41380;52.548;13.344;2022-08-01T08:41:50;3.50;;;3.20;;
9912;SDS011;41380;52.548;13.344;2022-08-01T08:44:17;3.42;;;3.17;;
9912;SDS011;41380;52.548;13.344;2022-08-01T08:46:46;2.90;;;2.50;;
9912;SDS011;41380;52.548;13.344;2022-08-01T08:49:18;2.75;;;2.55;;
9912;SDS011;41380;52.548;13.344;2022-08-01T08:51:48;2.88;;;2.60;;
9912;SDS011;41380;52.548;13.344;2022-08-01T08:54:16;2.70;;;2.30;;
9912;SDS011;41380;52.548;13.344;2022-08-01T08:56:45;2.55;;;2.28;;
9912;SDS011;41380;52.548;13.344;2022-08-01T08:59:13;3.10;;;2.30;;
9912;SDS011;41380;52.548;13.344;2022-08-01T09:01:41;2.55;;;2.17;;
9912;SDS011;41380;52.548;13.344;2022-08-01T09:04:08;2.30;;;1.80;;
9912;SDS011;41380;52.548;13.344;2022-08-01T09:06:39;1.92;;;1.63;;
9912;SDS011;41380;52.548;13.344;2022-08-01T09:09:06;1.95;;;1.80;;
9912;SDS011;41380;52.548;13.344;2022-08-01T09:11:34;1.92;;;1.73;;
9912;SDS011;41380;52.548;13.344;2022-08-01T09:14:03;2.28;;;2.08;;
9912;SDS011;41380;52.548;13.344;2022-08-01T09:16:35;2.60;;;2.40;;
9912;SDS011;41380;52.548;13.344;2022-08-01T09:19:07;2.20;;;2.10;;
9912;SDS011;41380;52.548;13.344;2022-08-01T09:21:35;3.88;;;2.10;;
9912;SDS011;41380;52.548;13.344;2022-08-01T09:24:12;2.20;;;2.03;;
9912;SDS011;41380;52.548;13.344;2022-08-01T09:26:40;3.90;;;2.22;;
9912;SDS011;41380;52.548;13.344;2022-08-01T09:29:08;3.25;;;1.95;;
9912;SDS011;41380;52.548;13.344;2022-08-01T09:31:44;3.05;;;2.53;;
9912;SDS011;41380;52.548;13.344;2022-08-01T09:34:12;2.45;;;2.20;;
9912;SDS011;41380;52.548;13.344;2022-08-01T09:36:43;2.75;;;2.33;;
9912;SDS011;41380;52.548;13.344;2022-08-01T09:39:14;2.95;;;1.95;;
9912;SDS011;41380;52.548;13.344;2022-08-01T09:41:41;4.82;;;2.50;;
9912;SDS011;41380;52.548;13.344;2022-08-01T09:44:08;2.00;;;1.90;;
9912;SDS011;41380;52.548;13.344;2022-08-01T09:46:35;2.72;;;2.00;;
9912;SDS011;41380;52.548;13.344;2022-08-01T09:49:14;2.90;;;2.70;;
9912;SDS011;41380;52.548;13.344;2022-08-01T09:51:52;2.42;;;2.22;;
9912;SDS011;41380;52.548;13.344;2022-08-01T09:54:28;2.47;;;2.15;;
9912;SDS011;41380;52.548;13.344;2022-08-01T09:57:06;2.13;;;2.00;;
9912;SDS011;41380;52.548;13.344;2022-08-01T09:59:35;5.05;;;2.45;;
9912;SDS011;41380;52.548;13.344;2022-08-01T10:02:02;2.40;;;2.20;;
9912;SDS011;41380;52.548;13.344;2022-08-01T10:04:30;2.40;;;2.30;;
9912;SDS011;41380;52.548;13.344;2022-08-01T10:07:03;2.30;;;2.10;;
9912;SDS011;41380;52.548;13.344;2022-08-01T10:09:34;2.40;;;2.30;;
9912;SDS011;41380;52.548;13.344;2022-08-01T10:12:02;2.15;;;1.98;;
9912;SDS011;41380;52.548;13.344;2022-08-01T10:14:30;2.30;;;2.10;;
9912;SDS011;41380;52.548;13.344;2022-08-01T10:16:57;2.60;;;2.40;;
9912;SDS011;41380;52.548;13.344;2022-08-01T10:19:27;2.53;;;2.33;;
9912;SDS011;41380;52.548;13.344;2022-08-01T10:21:55;2.20;;;2.10;;
9912;SDS011;41380;52.548;13.344;2022-08-01T10:24:24;2.10;;;1.90;;
9912;SDS011;41380;52.548;13.344;2022-08-01T10:26:56;2.20;;;2.00;;
9912;SDS011;41380;52.548;13.344;2022-08-01T10:29:28;2.75;;;2.40;;
9912;SDS011;41380;52.548;13.344;2022-08-01T10:32:02;4.97;;;2.25;;
9912;SDS011;41380;52.548;13.344;2022-08-01T10:34:30;2.65;;;2.15;;
9912;SDS011;41380;52.548;13.344;2022-08-01T10:36:59;2.55;;;1.92;;
9912;SDS011;41380;52.548;13.344;2022-08-01T10:39:26;3.60;;;1.90;;
9912;SDS011;41380;52.548;13.344;2022-08-01T10:41:57;2.92;;;2.20;;
9912;SDS011;41380;52.548;13.344;2022-08-01T10:44:24;8.13;;;2.15;;
9912;SDS011;41380;52.548;13.344;2022-08-01T10:46:54;2.42;;;1.90;;
9912;SDS011;41380;52.548;13.344;2022-08-01T10:49:28;2.75;;;1.83;;
9912;SDS011;41380;52.548;13.344;2022-08-01T10:51:58;2.88;;;1.73;;
9912;SDS011;41380;52.548;13.344;2022-08-01T10:54:25;1.60;;;1.50;;
9912;SDS011;41380;52.548;13.344;2022-08-01T10:56:52;1.80;;;1.70;;
9912;SDS011;41380;52.548;13.344;2022-08-01T10:59:24;1.70;;;1.50;;
9912;SDS011;41380;52.548;13.344;2022-08-01T11:01:56;1.70;;;1.60;;
9912;SDS011;41380;52.548;13.344;2022-08-01T11:04:32;2.08;;;1.83;;
9912;SDS011;41380;52.548;13.344;2022-08-01T11:07:04;1.50;;;1.40;;
9912;SDS011;41380;52.548;13.344;2022-08-01T11:09:42;1.73;;;1.63;;
9912;SDS011;41380;52.548;13.344;2022-08-01T11:12:10;1.95;;;1.60;;
9912;SDS011;41380;52.548;13.344;2022-08-01T11:17:50;2.83;;;2.10;;
9912;SDS011;41380;52.548;13.344;2022-08-01T11:20:19;2.20;;;1.98;;
9912;SDS011;41380;52.548;13.344;2022-08-01T11:26:06;3.83;;;2.00;;
9912;SDS011;41380;52.548;13.344;2022-08-01T11:28:34;2.08;;;1.90;;
9912;SDS011;41380;52.548;13.344;2022-08-01T11:33:53;2.33;;;1.92;;
9912;SDS011;41380;52.548;13.344;2022-08-01T11:36:20;2.35;;;2.08;;
9912;SDS011;41380;52.548;13.344;2022-08-01T11:38:49;2.55;;;1.90;;
9912;SDS011;41380;52.548;13.344;2022-08-01T11:41:37;1.90;;;1.80;;
9912;SDS011;41380;52.548;13.344;2022-08-01T11:44:05;2.00;;;1.90;;
9912;SDS011;41380;52.548;13.344;2022-08-01T11:46:47;1.80;;;1.70;;
9912;SDS011;41380;52.548;13.344;2022-08-01T11:49:27;1.85;;;1.63;;
9912;SDS011;41380;52.548;13.344;2022-08-01T11:52:13;2.70;;;1.70;;
9912;SDS011;41380;52.548;13.344;2022-08-01T11:54:42;1.75;;;1.65;;
9912;SDS011;41380;52.548;13.344;2022-08-01T11:57:11;2.13;;;1.60;;
9912;SDS011;41380;52.548;13.344;2022-08-01T11:59:39;1.95;;;1.27;;
9912;SDS011;41380;52.548;13.344;2022-08-01T12:02:17;1.73;;;1.60;;
9912;SDS011;41380;52.548;13.344;2022-08-01T12:04:48;1.52;;;1.27;;
9912;SDS011;41380;52.548;13.344;2022-08-01T12:07:16;1.40;;;1.40;;
9912;SDS011;41380;52.548;13.344;2022-08-01T12:09:44;1.73;;;1.05;;
9912;SDS011;41380;52.548;13.344;2022-08-01T12:12:14;1.80;;;1.70;;
9912;SDS011;41380;52.548;13.344;2022-08-01T12:14:44;1.58;;;0.95;;
9912;SDS011;41380;52.548;13.344;2022-08-01T12:17:11;1.50;;;1.30;;
9912;SDS011;41380;52.548;13.344;2022-08-01T12:19:39;2.97;;;2.47;;
9912;SDS011;41380;52.548;13.344;2022-08-01T12:22:12;2.92;;;1.33;;
9912;SDS011;41380;52.548;13.344;2022-08-01T12:24:41;1.55;;;1.40;;
9912;SDS011;41380;52.548;13.344;2022-08-01T12:27:09;1.80;;;1.40;;
9912;SDS011;41380;52.548;13.344;2022-08-01T12:29:39;3.20;;;1.70;;
9912;SDS011;41380;52.548;13.344;2022-08-01T12:32:21;1.38;;;1.27;;
9912;SDS011;41380;52.548;13.344;2022-08-01T12:34:50;1.60;;;1.23;;
9912;SDS011;41380;52.548;13.344;2022-08-01T12:37:19;2.90;;;1.30;;
9912;SDS011;41380;52.548;13.344;2022-08-01T12:39:46;1.63;;;1.58;;
9912;SDS011;41380;52.548;13.344;2022-08-01T12:42:13;1.30;;;1.20;;
9912;SDS011;41380;52.548;13.344;2022-08-01T12:44:41;1.65;;;1.55;;
9912;SDS011;41380;52.548;13.344;2022-08-01T12:47:11;2.08;;;1.33;;
9912;SDS011;41380;52.548;13.344;2022-08-01T12:49:40;2.65;;;1.48;;
9912;SDS011;41380;52.548;13.344;2022-08-01T12:52:09;1.45;;;1.30;;
9912;SDS011;41380;52.548;13.344;2022-08-01T12:57:28;1.70;;;1.60;;
9912;SDS011;41380;52.548;13.344;2022-08-01T13:00:05;1.80;;;1.45;;
9912;SDS011;41380;52.548;13.344;2022-08-01T13:02:43;1.58;;;1.38;;
9912;SDS011;41380;52.548;13.344;2022-08-01T13:05:11;2.38;;;1.40;;
9912;SDS011;41380;52.548;13.344;2022-08-01T13:07:43;2.00;;;1.30;;
9912;SDS011;41380;52.548;13.344;2022-08-01T13:10:14;1.52;;;1.38;;
9912;SDS011;41380;52.548;13.344;2022-08-01T13:12:51;2.63;;;1.45;;
9912;SDS011;41380;52.548;13.344;2022-08-01T13:15:29;4.57;;;1.90;;
9912;SDS011;41380;52.548;13.344;2022-08-01T13:18:01;3.15;;;1.98;;
9912;SDS011;41380;52.548;13.344;2022-08-01T13:20:47;3.88;;;1.90;;
9912;SDS011;41380;52.548;13.344;2022-08-01T13:23:15;1.92;;;1.73;;
9912;SDS011;41380;52.548;13.344;2022-08-01T13:25:49;3.60;;;1.73;;
9912;SDS011;41380;52.548;13.344;2022-08-01T13:28:19;1.70;;;1.55;;
9912;SDS011;41380;52.548;13.344;2022-08-01T13:30:55;2.58;;;1.50;;
9912;SDS011;41380;52.548;13.344;2022-08-01T13:33:24;1.65;;;1.40;;
9912;SDS011;41380;52.548;13.344;2022-08-01T13:35:54;1.60;;;1.50;;
9912;SDS011;41380;52.548;13.344;2022-08-01T13:38:22;1.70;;;1.60;;
9912;SDS011;41380;52.548;13.344;2022-08-01T13:41:04;1.98;;;1.88;;
9912;SDS011;41380;52.548;13.344;2022-08-01T13:43:31;1.50;;;1.40;;
9912;SDS011;41380;52.548;13.344;2022-08-01T13:45:59;1.98;;;1.80;;
9912;SDS011;41380;52.548;13.344;2022-08-01T13:48:27;2.10;;;1.65;;
9912;SDS011;41380;52.548;13.344;2022-08-01T13:50:54;1.88;;;1.52;;
9912;SDS011;41380;52.548;13.344;2022-08-01T13:53:21;2.70;;;1.80;;
9912;SDS011;41380;52.548;13.344;2022-08-01T13:55:48;2.53;;;1.70;;
9912;SDS011;41380;52.548;13.344;2022-08-01T13:58:17;2.20;;;1.50;;
9912;SDS011;41380;52.548;13.344;2022-08-01T14:00:44;1.73;;;1.30;;
9912;SDS011;41380;52.548;13.344;2022-08-01T14:03:13;7.55;;;1.60;;
9912;SDS011;41380;52.548;13.344;2022-08-01T14:05:41;1.60;;;1.50;;
9912;SDS011;41380;52.548;13.344;2022-08-01T14:08:08;1.58;;;1.48;;
9912;SDS011;41380;52.548;13.344;2022-08-01T14:10:36;1.40;;;1.02;;
9912;SDS011;41380;52.548;13.344;2022-08-01T14:13:02;0.90;;;0.90;;
9912;SDS011;41380;52.548;13.344;2022-08-01T14:15:31;2.17;;;1.13;;
9912;SDS011;41380;52.548;13.344;2022-08-01T14:17:58;1.02;;;1.02;;
9912;SDS011;41380;52.548;13.344;2022-08-01T14:20:25;1.20;;;1.10;;
9912;SDS011;41380;52.548;13.344;2022-08-01T14:22:52;1.63;;;1.17;;
9912;SDS011;41380;52.548;13.344;2022-08-01T14:25:19;1.80;;;0.90;;
9912;SDS011;41380;52.548;13.344;2022-08-01T14:27:46;1.02;;;1.02;;
9912;SDS011;41380;52.548;13.344;2022-08-01T14:30:13;0.90;;;0.90;;
9912;SDS011;41380;52.548;13.344;2022-08-01T14:32:41;2.95;;;1.15;;
9912;SDS011;41380;52.548;13.344;2022-08-01T14:35:08;1.58;;;0.77;;
9912;SDS011;41380;52.548;13.344;2022-08-01T14:37:35;1.58;;;0.80;;
9912;SDS011;41380;52.548;13.344;2022-08-01T14:40:02;0.75;;;0.75;;
9912;SDS011;41380;52.548;13.344;2022-08-01T14:42:33;1.73;;;0.80;;
9912;SDS011;41380;52.548;13.344;2022-08-01T14:45:00;1.88;;;1.30;;
9912;SDS011;41380;52.548;13.344;2022-08-01T14:47:27;2.20;;;1.05;;
9912;SDS011;41380;52.548;13.344;2022-08-01T14:49:55;1.27;;;1.17;;
9912;SDS011;41380;52.548;13.344;2022-08-01T14:52:22;1.40;;;1.13;;
9912;SDS011;41380;52.548;13.344;2022-08-01T14:54:49;2.08;;;1.70;;
9912;SDS011;41380;52.548;13.344;2022-08-01T14:57:16;2.40;;;1.80;;
9912;SDS011;41380;52.548;13.344;2022-08-01T14:59:44;1.88;;;1.77;;
9912;SDS011;41380;52.548;13.344;2022-08-01T15:02:11;1.85;;;1.60;;
9912;SDS011;41380;52.548;13.344;2022-08-01T15:04:41;2.00;;;1.55;;
9912;SDS011;41380;52.548;13.344;2022-08-01T15:07:10;2.28;;;2.00;;
9912;SDS011;41380;52.548;13.344;2022-08-01T15:09:37;1.90;;;1.80;;
9912;SDS011;41380;52.548;13.344;2022-08-01T15:12:06;4.00;;;2.08;;